sensor_id;sensor_type;location;lat;lon;timestamp;temperature;humidity
61979;DHT22;47938;48.176;16.414;2023-01-24T00:01:15;3.20;99.90
61979;DHT22;47938;48.176;16.414;2023-01-24T00:03:41;3.20;99.90
61979;DHT22;47938;48.176;16.414;2023-01-24T00:06:07;3.10;99.90
61979;DHT22;47938;48.176;16.414;2023-01-24T00:08:32;3.10;99.90
61979;DHT22;47938;48.176;16.414;2023-01-24T00:13:25;3.10;99.90
61979;DHT22;47938;48.176;16.414;2023-01-24T00:15:50;3.10;99.90
61979;DHT22;47938;48.176;16.414;2023-01-24T00:18:16;3.10;99.90
61979;DHT22;47938;48.176;16.414;2023-01-24T00:20:41;3.10;99.90
61979;DHT22;47938;48.176;16.414;2023-01-24T00:23:07;3.10;99.90
61979;DHT22;47938;48.176;16.414;2023-01-24T00:25:33;3.10;99.90
61979;DHT22;47938;48.176;16.414;2023-01-24T00:27:58;3.10;99.90
61979;DHT22;47938;48.176;16.414;2023-01-24T00:30:24;3.10;99.90
61979;DHT22;47938;48.176;16.414;2023-01-24T00:32:49;3.10;99.90
61979;DHT22;47938;48.176;16.414;2023-01-24T00:35:15;3.10;99.90
61979;DHT22;47938;48.176;16.414;2023-01-24T00:37:41;3.10;99.90
61979;DHT22;47938;48.176;16.414;2023-01-24T00:40:07;3.10;99.90
61979;DHT22;47938;48.176;16.414;2023-01-24T00:42:33;3.10;99.90
61979;DHT22;47938;48.176;16.414;2023-01-24T00:44:59;3.10;99.90
61979;DHT22;47938;48.176;16.414;2023-01-24T00:47:25;3.10;99.90
61979;DHT22;47938;48.176;16.414;2023-01-24T00:49:50;3.10;99.90
61979;DHT22;47938;48.176;16.414;2023-01-24T00:52:16;3.10;99.90
61979;DHT22;47938;48.176;16.414;2023-01-24T00:54:41;3.10;99.90
61979;DHT22;47938;48.176;16.414;2023-01-24T00:57:07;3.10;99.90
61979;DHT22;47938;48.176;16.414;2023-01-24T00:59:33;3.10;99.90
61979;DHT22;47938;48.176;16.414;2023-01-24T01:01:58;3.10;99.90
61979;DHT22;47938;48.176;16.414;2023-01-24T01:04:24;3.10;99.90
61979;DHT22;47938;48.176;16.414;2023-01-24T01:06:49;3.00;99.90
61979;DHT22;47938;48.176;16.414;2023-01-24T01:09:15;3.10;99.90
61979;DHT22;47938;48.176;16.414;2023-01-24T01:11:41;3.00;99.90
61979;DHT22;47938;48.176;16.414;2023-01-24T01:14:07;3.00;99.90
61979;DHT22;47938;48.176;16.414;2023-01-24T01:16:33;3.00;99.90
61979;DHT22;47938;48.176;16.414;2023-01-24T01:18:58;3.00;99.90
61979;DHT22;47938;48.176;16.414;2023-01-24T01:21:24;3.10;99.90
61979;DHT22;47938;48.176;16.414;2023-01-24T01:23:50;3.10;99.90
61979;DHT22;47938;48.176;16.414;2023-01-24T01:26:19;3.10;99.90
61979;DHT22;47938;48.176;16.414;2023-01-24T01:28:45;3.10;99.90
61979;DHT22;47938;48.176;16.414;2023-01-24T01:31:11;3.10;99.90
61979;DHT22;47938;48.176;16.414;2023-01-24T01:33:37;3.10;99.90
61979;DHT22;47938;48.176;16.414;2023-01-24T01:36:02;3.10;99.90
61979;DHT22;47938;48.176;16.414;2023-01-24T01:38:28;3.10;99.90
61979;DHT22;47938;48.176;16.414;2023-01-24T01:40:55;3.10;99.90
61979;DHT22;47938;48.176;16.414;2023-01-24T01:43:23;3.10;99.90
61979;DHT22;47938;48.176;16.414;2023-01-24T01:45:51;3.10;99.90
61979;DHT22;47938;48.176;16.414;2023-01-24T01:48:21;3.10;99.90
61979;DHT22;47938;48.176;16.414;2023-01-24T01:51:02;3.20;99.90
61979;DHT22;47938;48.176;16.414;2023-01-24T01:53:40;3.20;99.90
61979;DHT22;47938;48.176;16.414;2023-01-24T01:56:12;3.10;99.90
61979;DHT22;47938;48.176;16.414;2023-01-24T01:58:42;3.10;99.90
61979;DHT22;47938;48.176;16.414;2023-01-24T02:01:07;3.10;99.90
61979;DHT22;47938;48.176;16.414;2023-01-24T02:03:38;3.20;99.90
61979;DHT22;47938;48.176;16.414;2023-01-24T02:08:51;3.20;99.90
61979;DHT22;47938;48.176;16.414;2023-01-24T02:11:17;3.10;99.90
61979;DHT22;47938;48.176;16.414;2023-01-24T02:13:44;3.10;99.90
61979;DHT22;47938;48.176;16.414;2023-01-24T02:16:12;3.10;99.90
61979;DHT22;47938;48.176;16.414;2023-01-24T02:18:40;3.10;99.90
61979;DHT22;47938;48.176;16.414;2023-01-24T02:21:15;3.10;99.90
61979;DHT22;47938;48.176;16.414;2023-01-24T02:24:00;3.10;99.90
61979;DHT22;47938;48.176;16.414;2023-01-24T02:26:28;3.10;99.90
61979;DHT22;47938;48.176;16.414;2023-01-24T02:29:20;3.20;99.90
61979;DHT22;47938;48.176;16.414;2023-01-24T02:32:01;3.20;99.90
61979;DHT22;47938;48.176;16.414;2023-01-24T02:34:28;3.10;99.90
61979;DHT22;47938;48.176;16.414;2023-01-24T02:37:00;3.10;99.90
61979;DHT22;47938;48.176;16.414;2023-01-24T02:39:50;3.00;99.90
61979;DHT22;47938;48.176;16.414;2023-01-24T02:42:20;3.00;99.90
61979;DHT22;47938;48.176;16.414;2023-01-24T02:44:57;3.10;99.90
61979;DHT22;47938;48.176;16.414;2023-01-24T02:47:30;3.00;99.90
61979;DHT22;47938;48.176;16.414;2023-01-24T02:49:56;3.00;99.90
61979;DHT22;47938;48.176;16.414;2023-01-24T02:52:22;3.00;99.90
61979;DHT22;47938;48.176;16.414;2023-01-24T02:54:47;3.00;99.90
61979;DHT22;47938;48.176;16.414;2023-01-24T02:57:13;3.00;99.90
61979;DHT22;47938;48.176;16.414;2023-01-24T02:59:38;3.00;99.90
61979;DHT22;47938;48.176;16.414;2023-01-24T03:02:04;3.00;99.90
61979;DHT22;47938;48.176;16.414;2023-01-24T03:04:29;3.10;99.90
61979;DHT22;47938;48.176;16.414;2023-01-24T03:06:55;3.00;99.90
61979;DHT22;47938;48.176;16.414;2023-01-24T03:09:21;3.00;99.90
61979;DHT22;47938;48.176;16.414;2023-01-24T03:11:47;3.00;99.90
61979;DHT22;47938;48.176;16.414;2023-01-24T03:14:13;3.00;99.90
61979;DHT22;47938;48.176;16.414;2023-01-24T03:16:39;3.00;99.90
61979;DHT22;47938;48.176;16.414;2023-01-24T03:19:05;3.00;99.90
61979;DHT22;47938;48.176;16.414;2023-01-24T03:21:31;3.00;99.90
61979;DHT22;47938;48.176;16.414;2023-01-24T03:23:56;3.00;99.90
61979;DHT22;47938;48.176;16.414;2023-01-24T03:26:23;3.10;99.90
61979;DHT22;47938;48.176;16.414;2023-01-24T03:28:49;3.10;99.90
61979;DHT22;47938;48.176;16.414;2023-01-24T03:31:14;3.10;99.90
61979;DHT22;47938;48.176;16.414;2023-01-24T03:33:40;3.10;99.90
61979;DHT22;47938;48.176;16.414;2023-01-24T03:36:06;3.10;99.90
61979;DHT22;47938;48.176;16.414;2023-01-24T03:38:31;3.10;99.90
61979;DHT22;47938;48.176;16.414;2023-01-24T03:40:57;3.00;99.90
61979;DHT22;47938;48.176;16.414;2023-01-24T03:43:23;3.00;99.90
61979;DHT22;47938;48.176;16.414;2023-01-24T03:45:52;3.10;99.90
61979;DHT22;47938;48.176;16.414;2023-01-24T03:48:17;3.10;99.90
61979;DHT22;47938;48.176;16.414;2023-01-24T03:50:43;3.10;99.90
61979;DHT22;47938;48.176;16.414;2023-01-24T03:53:09;3.10;99.90
61979;DHT22;47938;48.176;16.414;2023-01-24T03:55:35;3.10;99.90
61979;DHT22;47938;48.176;16.414;2023-01-24T03:58:01;3.10;99.90
61979;DHT22;47938;48.176;16.414;2023-01-24T04:00:27;3.00;99.90
61979;DHT22;47938;48.176;16.414;2023-01-24T04:02:53;3.00;99.90
61979;DHT22;47938;48.176;16.414;2023-01-24T04:05:19;3.10;99.90
61979;DHT22;47938;48.176;16.414;2023-01-24T04:07:45;3.10;99.90
61979;DHT22;47938;48.176;16.414;2023-01-24T04:10:10;3.10;99.90
61979;DHT22;47938;48.176;16.414;2023-01-24T04:12:36;3.00;99.90
61979;DHT22;47938;48.176;16.414;2023-01-24T04:15:02;3.00;99.90
61979;DHT22;47938;48.176;16.414;2023-01-24T04:17:27;3.10;99.90
61979;DHT22;47938;48.176;16.414;2023-01-24T04:19:53;3.10;99.90
61979;DHT22;47938;48.176;16.414;2023-01-24T04:22:18;3.10;99.90
61979;DHT22;47938;48.176;16.414;2023-01-24T04:24:44;3.10;99.90
61979;DHT22;47938;48.176;16.414;2023-01-24T04:27:11;3.10;99.90
61979;DHT22;47938;48.176;16.414;2023-01-24T04:29:36;3.00;99.90
61979;DHT22;47938;48.176;16.414;2023-01-24T04:32:02;3.00;99.90
61979;DHT22;47938;48.176;16.414;2023-01-24T04:34:28;3.00;99.90
61979;DHT22;47938;48.176;16.414;2023-01-24T04:36:53;3.00;99.90
61979;DHT22;47938;48.176;16.414;2023-01-24T04:39:19;3.00;99.90
61979;DHT22;47938;48.176;16.414;2023-01-24T04:41:44;3.00;99.90
61979;DHT22;47938;48.176;16.414;2023-01-24T04:44:10;3.00;99.90
61979;DHT22;47938;48.176;16.414;2023-01-24T04:46:36;3.00;99.90
61979;DHT22;47938;48.176;16.414;2023-01-24T04:49:01;3.00;99.90
61979;DHT22;47938;48.176;16.414;2023-01-24T04:51:27;3.00;99.90
61979;DHT22;47938;48.176;16.414;2023-01-24T04:53:53;3.00;99.90
61979;DHT22;47938;48.176;16.414;2023-01-24T04:56:18;3.00;99.90
61979;DHT22;47938;48.176;16.414;2023-01-24T04:58:44;3.00;99.90
61979;DHT22;47938;48.176;16.414;2023-01-24T05:01:09;3.00;99.90
61979;DHT22;47938;48.176;16.414;2023-01-24T05:03:35;3.00;99.90
61979;DHT22;47938;48.176;16.414;2023-01-24T05:06:00;3.10;99.90
61979;DHT22;47938;48.176;16.414;2023-01-24T05:08:26;3.10;99.90
61979;DHT22;47938;48.176;16.414;2023-01-24T05:10:52;3.00;99.90
61979;DHT22;47938;48.176;16.414;2023-01-24T05:13:18;3.00;99.90
61979;DHT22;47938;48.176;16.414;2023-01-24T05:15:48;2.90;99.90
61979;DHT22;47938;48.176;16.414;2023-01-24T05:18:14;2.90;99.90
61979;DHT22;47938;48.176;16.414;2023-01-24T05:20:40;3.00;99.90
61979;DHT22;47938;48.176;16.414;2023-01-24T05:23:05;3.00;99.90
61979;DHT22;47938;48.176;16.414;2023-01-24T05:25:31;3.00;99.90
61979;DHT22;47938;48.176;16.414;2023-01-24T05:27:56;3.10;99.90
61979;DHT22;47938;48.176;16.414;2023-01-24T05:30:22;3.00;99.90
61979;DHT22;47938;48.176;16.414;2023-01-24T05:32:48;3.00;99.90
61979;DHT22;47938;48.176;16.414;2023-01-24T05:35:13;3.10;99.90
61979;DHT22;47938;48.176;16.414;2023-01-24T05:37:39;3.10;99.90
61979;DHT22;47938;48.176;16.414;2023-01-24T05:40:06;3.10;99.90
61979;DHT22;47938;48.176;16.414;2023-01-24T05:42:32;3.00;99.90
61979;DHT22;47938;48.176;16.414;2023-01-24T05:44:58;3.00;99.90
61979;DHT22;47938;48.176;16.414;2023-01-24T05:47:23;3.00;99.90
61979;DHT22;47938;48.176;16.414;2023-01-24T05:49:49;3.00;99.90
61979;DHT22;47938;48.176;16.414;2023-01-24T05:52:16;3.00;99.90
61979;DHT22;47938;48.176;16.414;2023-01-24T05:54:41;3.00;99.90
61979;DHT22;47938;48.176;16.414;2023-01-24T05:57:07;3.00;99.90
61979;DHT22;47938;48.176;16.414;2023-01-24T05:59:32;3.00;99.90
61979;DHT22;47938;48.176;16.414;2023-01-24T06:01:58;3.10;99.90
61979;DHT22;47938;48.176;16.414;2023-01-24T06:04:24;3.10;99.90
61979;DHT22;47938;48.176;16.414;2023-01-24T06:06:49;3.00;99.90
61979;DHT22;47938;48.176;16.414;2023-01-24T06:09:15;3.00;99.90
61979;DHT22;47938;48.176;16.414;2023-01-24T06:11:40;3.00;99.90
61979;DHT22;47938;48.176;16.414;2023-01-24T06:14:06;3.00;99.90
61979;DHT22;47938;48.176;16.414;2023-01-24T06:16:32;3.00;99.90
61979;DHT22;47938;48.176;16.414;2023-01-24T06:18:57;3.00;99.90
61979;DHT22;47938;48.176;16.414;2023-01-24T06:24:22;3.10;99.90
61979;DHT22;47938;48.176;16.414;2023-01-24T06:26:48;3.10;99.90
61979;DHT22;47938;48.176;16.414;2023-01-24T06:29:15;3.00;99.90
61979;DHT22;47938;48.176;16.414;2023-01-24T06:34:42;3.00;99.90
61979;DHT22;47938;48.176;16.414;2023-01-24T06:39:52;3.00;99.90
61979;DHT22;47938;48.176;16.414;2023-01-24T06:42:21;2.90;99.90
61979;DHT22;47938;48.176;16.414;2023-01-24T06:44:48;3.00;99.90
61979;DHT22;47938;48.176;16.414;2023-01-24T06:47:14;3.00;99.90
61979;DHT22;47938;48.176;16.414;2023-01-24T06:49:42;3.00;99.90
61979;DHT22;47938;48.176;16.414;2023-01-24T06:52:08;3.00;99.90
61979;DHT22;47938;48.176;16.414;2023-01-24T06:54:35;2.90;99.90
61979;DHT22;47938;48.176;16.414;2023-01-24T06:57:01;2.90;99.90
61979;DHT22;47938;48.176;16.414;2023-01-24T06:59:27;2.80;99.90
61979;DHT22;47938;48.176;16.414;2023-01-24T07:01:53;2.80;99.90
61979;DHT22;47938;48.176;16.414;2023-01-24T07:04:19;2.80;99.90
61979;DHT22;47938;48.176;16.414;2023-01-24T07:06:44;2.80;99.90
61979;DHT22;47938;48.176;16.414;2023-01-24T07:09:10;2.80;99.90
61979;DHT22;47938;48.176;16.414;2023-01-24T07:11:36;2.80;99.90
61979;DHT22;47938;48.176;16.414;2023-01-24T07:14:01;2.80;99.90
61979;DHT22;47938;48.176;16.414;2023-01-24T07:16:27;2.80;99.90
61979;DHT22;47938;48.176;16.414;2023-01-24T07:18:53;2.80;99.90
61979;DHT22;47938;48.176;16.414;2023-01-24T07:21:19;2.80;99.90
61979;DHT22;47938;48.176;16.414;2023-01-24T07:23:46;2.80;99.90
61979;DHT22;47938;48.176;16.414;2023-01-24T07:26:13;2.90;99.90
61979;DHT22;47938;48.176;16.414;2023-01-24T07:28:39;2.90;99.90
61979;DHT22;47938;48.176;16.414;2023-01-24T07:31:05;2.90;99.90
61979;DHT22;47938;48.176;16.414;2023-01-24T07:33:31;2.90;99.90
61979;DHT22;47938;48.176;16.414;2023-01-24T07:35:56;2.90;99.90
61979;DHT22;47938;48.176;16.414;2023-01-24T07:38:22;2.90;99.90
61979;DHT22;47938;48.176;16.414;2023-01-24T07:40:48;2.90;99.90
61979;DHT22;47938;48.176;16.414;2023-01-24T07:43:13;2.90;99.90
61979;DHT22;47938;48.176;16.414;2023-01-24T07:45:39;2.90;99.90
61979;DHT22;47938;48.176;16.414;2023-01-24T07:48:07;3.00;99.90
61979;DHT22;47938;48.176;16.414;2023-01-24T07:50:33;3.00;99.90
61979;DHT22;47938;48.176;16.414;2023-01-24T07:52:59;3.00;99.90
61979;DHT22;47938;48.176;16.414;2023-01-24T07:55:25;3.00;99.90
61979;DHT22;47938;48.176;16.414;2023-01-24T07:57:51;3.10;99.90
61979;DHT22;47938;48.176;16.414;2023-01-24T08:00:22;3.10;99.90
61979;DHT22;47938;48.176;16.414;2023-01-24T08:02:48;3.00;99.90
61979;DHT22;47938;48.176;16.414;2023-01-24T08:05:14;2.90;99.90
61979;DHT22;47938;48.176;16.414;2023-01-24T08:07:39;3.00;99.90
61979;DHT22;47938;48.176;16.414;2023-01-24T08:10:06;3.00;99.90
61979;DHT22;47938;48.176;16.414;2023-01-24T08:12:31;3.00;99.90
61979;DHT22;47938;48.176;16.414;2023-01-24T08:14:57;3.10;99.90
61979;DHT22;47938;48.176;16.414;2023-01-24T08:17:23;3.10;99.90
61979;DHT22;47938;48.176;16.414;2023-01-24T08:19:48;3.10;99.90
61979;DHT22;47938;48.176;16.414;2023-01-24T08:22:14;3.10;99.90
61979;DHT22;47938;48.176;16.414;2023-01-24T08:24:39;3.00;99.90
61979;DHT22;47938;48.176;16.414;2023-01-24T08:27:05;3.00;99.90
61979;DHT22;47938;48.176;16.414;2023-01-24T08:29:31;3.00;99.90
61979;DHT22;47938;48.176;16.414;2023-01-24T08:31:58;3.00;99.90
61979;DHT22;47938;48.176;16.414;2023-01-24T08:34:23;3.00;99.90
61979;DHT22;47938;48.176;16.414;2023-01-24T08:36:49;3.00;99.90
61979;DHT22;47938;48.176;16.414;2023-01-24T08:39:15;3.10;99.90
61979;DHT22;47938;48.176;16.414;2023-01-24T08:41:41;3.10;99.90
61979;DHT22;47938;48.176;16.414;2023-01-24T08:44:08;3.20;99.90
61979;DHT22;47938;48.176;16.414;2023-01-24T08:46:33;3.30;99.90
61979;DHT22;47938;48.176;16.414;2023-01-24T08:48:59;3.20;99.90
61979;DHT22;47938;48.176;16.414;2023-01-24T08:51:25;3.20;99.90
61979;DHT22;47938;48.176;16.414;2023-01-24T08:53:50;3.20;99.90
61979;DHT22;47938;48.176;16.414;2023-01-24T08:56:16;3.10;99.90
61979;DHT22;47938;48.176;16.414;2023-01-24T08:58:41;3.10;99.90
61979;DHT22;47938;48.176;16.414;2023-01-24T09:01:08;3.10;99.90
61979;DHT22;47938;48.176;16.414;2023-01-24T09:03:35;3.10;99.90
61979;DHT22;47938;48.176;16.414;2023-01-24T09:06:01;3.20;99.90
61979;DHT22;47938;48.176;16.414;2023-01-24T09:08:26;3.10;99.90
61979;DHT22;47938;48.176;16.414;2023-01-24T09:10:52;3.10;99.90
61979;DHT22;47938;48.176;16.414;2023-01-24T09:13:18;3.00;99.90
61979;DHT22;47938;48.176;16.414;2023-01-24T09:15:44;3.10;99.90
61979;DHT22;47938;48.176;16.414;2023-01-24T09:18:10;3.10;99.90
61979;DHT22;47938;48.176;16.414;2023-01-24T09:20:36;3.20;99.90
61979;DHT22;47938;48.176;16.414;2023-01-24T09:23:13;3.10;99.90
61979;DHT22;47938;48.176;16.414;2023-01-24T09:25:39;3.10;99.90
61979;DHT22;47938;48.176;16.414;2023-01-24T09:28:05;3.10;99.90
61979;DHT22;47938;48.176;16.414;2023-01-24T09:30:30;3.10;99.90
61979;DHT22;47938;48.176;16.414;2023-01-24T09:32:56;3.20;99.90
61979;DHT22;47938;48.176;16.414;2023-01-24T09:35:22;3.20;99.90
61979;DHT22;47938;48.176;16.414;2023-01-24T09:37:47;3.10;99.90
61979;DHT22;47938;48.176;16.414;2023-01-24T09:40:23;3.10;99.90
61979;DHT22;47938;48.176;16.414;2023-01-24T09:43:04;3.10;99.90
61979;DHT22;47938;48.176;16.414;2023-01-24T09:45:37;3.10;99.90
61979;DHT22;47938;48.176;16.414;2023-01-24T09:48:12;3.10;99.90
61979;DHT22;47938;48.176;16.414;2023-01-24T09:50:51;3.20;99.90
61979;DHT22;47938;48.176;16.414;2023-01-24T09:53:24;3.20;99.90
61979;DHT22;47938;48.176;16.414;2023-01-24T09:55:51;3.10;99.90
61979;DHT22;47938;48.176;16.414;2023-01-24T09:58:29;3.10;99.90
61979;DHT22;47938;48.176;16.414;2023-01-24T10:00:55;3.10;99.90
61979;DHT22;47938;48.176;16.414;2023-01-24T10:03:22;3.20;99.90
61979;DHT22;47938;48.176;16.414;2023-01-24T10:05:53;3.20;99.90
61979;DHT22;47938;48.176;16.414;2023-01-24T10:08:27;3.20;99.90
61979;DHT22;47938;48.176;16.414;2023-01-24T10:14:33;3.20;99.90
61979;DHT22;47938;48.176;16.414;2023-01-24T10:22:11;3.30;99.90
61979;DHT22;47938;48.176;16.414;2023-01-24T10:24:41;3.30;99.90
61979;DHT22;47938;48.176;16.414;2023-01-24T10:27:35;3.30;99.90
61979;DHT22;47938;48.176;16.414;2023-01-24T10:30:16;3.30;99.90
61979;DHT22;47938;48.176;16.414;2023-01-24T10:32:45;3.20;99.90
61979;DHT22;47938;48.176;16.414;2023-01-24T10:35:40;3.30;99.90
61979;DHT22;47938;48.176;16.414;2023-01-24T10:38:13;3.30;99.90
61979;DHT22;47938;48.176;16.414;2023-01-24T10:40:58;3.40;99.90
61979;DHT22;47938;48.176;16.414;2023-01-24T10:43:27;3.30;99.90
61979;DHT22;47938;48.176;16.414;2023-01-24T10:46:13;3.30;99.90
61979;DHT22;47938;48.176;16.414;2023-01-24T10:48:51;3.40;99.90
61979;DHT22;47938;48.176;16.414;2023-01-24T10:51:21;3.50;99.90
61979;DHT22;47938;48.176;16.414;2023-01-24T10:53:47;3.40;99.90
61979;DHT22;47938;48.176;16.414;2023-01-24T10:56:16;3.40;99.90
61979;DHT22;47938;48.176;16.414;2023-01-24T10:59:00;3.40;99.90
61979;DHT22;47938;48.176;16.414;2023-01-24T11:01:37;3.40;99.90
61979;DHT22;47938;48.176;16.414;2023-01-24T11:04:22;3.50;99.90
61979;DHT22;47938;48.176;16.414;2023-01-24T11:06:50;3.50;99.90
61979;DHT22;47938;48.176;16.414;2023-01-24T11:09:18;3.50;99.90
61979;DHT22;47938;48.176;16.414;2023-01-24T11:11:50;3.50;99.90
61979;DHT22;47938;48.176;16.414;2023-01-24T11:14:17;3.50;99.90
61979;DHT22;47938;48.176;16.414;2023-01-24T11:16:50;3.50;99.90
61979;DHT22;47938;48.176;16.414;2023-01-24T11:19:37;3.40;99.90
61979;DHT22;47938;48.176;16.414;2023-01-24T11:22:20;3.50;99.90
61979;DHT22;47938;48.176;16.414;2023-01-24T11:24:46;3.50;99.90
61979;DHT22;47938;48.176;16.414;2023-01-24T11:27:18;3.50;99.90
61979;DHT22;47938;48.176;16.414;2023-01-24T11:29:44;3.50;99.90
61979;DHT22;47938;48.176;16.414;2023-01-24T11:35:03;3.40;99.90
61979;DHT22;47938;48.176;16.414;2023-01-24T11:40:24;3.40;99.90
61979;DHT22;47938;48.176;16.414;2023-01-24T11:48:08;3.50;99.90
61979;DHT22;47938;48.176;16.414;2023-01-24T11:51:09;3.60;99.90
61979;DHT22;47938;48.176;16.414;2023-01-24T11:54:05;3.60;99.90
61979;DHT22;47938;48.176;16.414;2023-01-24T12:04:45;3.50;99.90
61979;DHT22;47938;48.176;16.414;2023-01-24T12:12:26;3.40;99.90
61979;DHT22;47938;48.176;16.414;2023-01-24T12:15:19;3.40;99.90
61979;DHT22;47938;48.176;16.414;2023-01-24T12:17:53;3.50;99.90
61979;DHT22;47938;48.176;16.414;2023-01-24T12:23:45;3.50;99.90
61979;DHT22;47938;48.176;16.414;2023-01-24T12:26:30;3.60;99.90
61979;DHT22;47938;48.176;16.414;2023-01-24T12:29:14;3.50;99.90
61979;DHT22;47938;48.176;16.414;2023-01-24T12:31:54;3.40;99.90
61979;DHT22;47938;48.176;16.414;2023-01-24T12:40:15;3.40;99.90
61979;DHT22;47938;48.176;16.414;2023-01-24T12:56:36;3.50;99.90
61979;DHT22;47938;48.176;16.414;2023-01-24T12:59:08;3.40;99.90
61979;DHT22;47938;48.176;16.414;2023-01-24T13:13:02;3.50;99.90
61979;DHT22;47938;48.176;16.414;2023-01-24T13:15:41;3.60;99.90
61979;DHT22;47938;48.176;16.414;2023-01-24T13:19:10;3.60;99.90
61979;DHT22;47938;48.176;16.414;2023-01-24T13:23:51;3.50;99.90
61979;DHT22;47938;48.176;16.414;2023-01-24T13:34:32;3.60;99.90
61979;DHT22;47938;48.176;16.414;2023-01-24T13:36:59;3.70;99.90
61979;DHT22;47938;48.176;16.414;2023-01-24T13:39:36;3.70;99.90
61979;DHT22;47938;48.176;16.414;2023-01-24T13:44:43;3.60;99.90
61979;DHT22;47938;48.176;16.414;2023-01-24T13:49:37;3.50;99.90
61979;DHT22;47938;48.176;16.414;2023-01-24T13:54:48;3.60;99.90
61979;DHT22;47938;48.176;16.414;2023-01-24T13:57:25;3.70;99.90
61979;DHT22;47938;48.176;16.414;2023-01-24T14:08:01;3.60;99.90
61979;DHT22;47938;48.176;16.414;2023-01-24T14:16:12;3.60;99.90
61979;DHT22;47938;48.176;16.414;2023-01-24T14:18:42;3.60;99.90
61979;DHT22;47938;48.176;16.414;2023-01-24T14:21:23;3.70;99.90
61979;DHT22;47938;48.176;16.414;2023-01-24T14:23:51;3.70;99.90
61979;DHT22;47938;48.176;16.414;2023-01-24T14:26:21;3.70;99.90
61979;DHT22;47938;48.176;16.414;2023-01-24T14:28:50;3.60;99.90
61979;DHT22;47938;48.176;16.414;2023-01-24T14:34:14;3.60;99.90
61979;DHT22;47938;48.176;16.414;2023-01-24T14:36:43;3.60;99.90
61979;DHT22;47938;48.176;16.414;2023-01-24T14:39:25;3.60;99.90
61979;DHT22;47938;48.176;16.414;2023-01-24T14:49:36;3.60;99.90
61979;DHT22;47938;48.176;16.414;2023-01-24T14:52:16;3.70;99.90
61979;DHT22;47938;48.176;16.414;2023-01-24T14:54:46;3.70;99.90
61979;DHT22;47938;48.176;16.414;2023-01-24T15:02:30;3.80;99.90
61979;DHT22;47938;48.176;16.414;2023-01-24T15:04:55;3.70;99.90
61979;DHT22;47938;48.176;16.414;2023-01-24T15:07:21;3.80;99.90
61979;DHT22;47938;48.176;16.414;2023-01-24T15:09:47;3.70;99.90
61979;DHT22;47938;48.176;16.414;2023-01-24T15:12:24;3.70;99.90
61979;DHT22;47938;48.176;16.414;2023-01-24T15:14:51;3.80;99.90
61979;DHT22;47938;48.176;16.414;2023-01-24T15:17:27;3.80;99.90
61979;DHT22;47938;48.176;16.414;2023-01-24T15:20:14;3.80;99.90
61979;DHT22;47938;48.176;16.414;2023-01-24T15:22:40;3.70;99.90
61979;DHT22;47938;48.176;16.414;2023-01-24T15:25:32;3.70;99.90
61979;DHT22;47938;48.176;16.414;2023-01-24T15:28:09;3.70;99.90
61979;DHT22;47938;48.176;16.414;2023-01-24T15:30:35;3.70;99.90
61979;DHT22;47938;48.176;16.414;2023-01-24T15:33:08;3.80;99.90
61979;DHT22;47938;48.176;16.414;2023-01-24T15:35:49;3.80;99.90
61979;DHT22;47938;48.176;16.414;2023-01-24T15:38:18;3.70;99.90
61979;DHT22;47938;48.176;16.414;2023-01-24T15:43:28;3.80;99.90
61979;DHT22;47938;48.176;16.414;2023-01-24T15:45:55;3.70;99.90
61979;DHT22;47938;48.176;16.414;2023-01-24T15:48:23;3.70;99.90
61979;DHT22;47938;48.176;16.414;2023-01-24T15:50:55;3.70;99.90
61979;DHT22;47938;48.176;16.414;2023-01-24T15:53:25;3.80;99.90
61979;DHT22;47938;48.176;16.414;2023-01-24T15:55:51;3.80;99.90
61979;DHT22;47938;48.176;16.414;2023-01-24T15:58:17;3.80;99.90
61979;DHT22;47938;48.176;16.414;2023-01-24T16:01:09;3.90;99.90
61979;DHT22;47938;48.176;16.414;2023-01-24T16:03:35;3.90;99.90
61979;DHT22;47938;48.176;16.414;2023-01-24T16:06:00;3.90;99.90
61979;DHT22;47938;48.176;16.414;2023-01-24T16:08:26;3.90;99.60
61979;DHT22;47938;48.176;16.414;2023-01-24T16:10:51;3.80;99.90
61979;DHT22;47938;48.176;16.414;2023-01-24T16:15:49;3.80;99.90
61979;DHT22;47938;48.176;16.414;2023-01-24T16:18:15;3.90;99.90
61979;DHT22;47938;48.176;16.414;2023-01-24T16:20:40;3.90;99.40
61979;DHT22;47938;48.176;16.414;2023-01-24T16:23:06;3.80;99.90
61979;DHT22;47938;48.176;16.414;2023-01-24T16:25:32;3.80;99.80
61979;DHT22;47938;48.176;16.414;2023-01-24T16:27:59;3.80;99.90
61979;DHT22;47938;48.176;16.414;2023-01-24T16:30:25;3.90;99.70
61979;DHT22;47938;48.176;16.414;2023-01-24T16:32:51;3.80;99.50
61979;DHT22;47938;48.176;16.414;2023-01-24T16:35:17;3.80;99.50
61979;DHT22;47938;48.176;16.414;2023-01-24T16:37:44;3.80;99.10
61979;DHT22;47938;48.176;16.414;2023-01-24T16:40:11;3.90;99.00
61979;DHT22;47938;48.176;16.414;2023-01-24T16:42:42;3.80;99.30
61979;DHT22;47938;48.176;16.414;2023-01-24T16:45:15;3.80;99.60
61979;DHT22;47938;48.176;16.414;2023-01-24T16:47:40;3.80;99.60
61979;DHT22;47938;48.176;16.414;2023-01-24T16:50:07;3.80;98.80
61979;DHT22;47938;48.176;16.414;2023-01-24T16:52:32;3.80;99.30
61979;DHT22;47938;48.176;16.414;2023-01-24T16:54:58;3.70;99.90
61979;DHT22;47938;48.176;16.414;2023-01-24T16:57:24;3.80;99.80
61979;DHT22;47938;48.176;16.414;2023-01-24T16:59:49;3.80;99.20
61979;DHT22;47938;48.176;16.414;2023-01-24T17:02:15;3.80;99.50
61979;DHT22;47938;48.176;16.414;2023-01-24T17:04:41;3.80;99.30
61979;DHT22;47938;48.176;16.414;2023-01-24T17:07:07;3.90;99.20
61979;DHT22;47938;48.176;16.414;2023-01-24T17:09:33;3.90;99.10
61979;DHT22;47938;48.176;16.414;2023-01-24T17:12:00;3.90;98.70
61979;DHT22;47938;48.176;16.414;2023-01-24T17:14:25;3.90;98.50
61979;DHT22;47938;48.176;16.414;2023-01-24T17:16:51;3.90;98.70
61979;DHT22;47938;48.176;16.414;2023-01-24T17:19:17;4.00;98.90
61979;DHT22;47938;48.176;16.414;2023-01-24T17:21:42;4.00;99.70
61979;DHT22;47938;48.176;16.414;2023-01-24T17:24:08;3.90;99.00
61979;DHT22;47938;48.176;16.414;2023-01-24T17:26:34;3.90;99.30
61979;DHT22;47938;48.176;16.414;2023-01-24T17:29:00;3.90;99.00
61979;DHT22;47938;48.176;16.414;2023-01-24T17:31:27;3.90;98.20
61979;DHT22;47938;48.176;16.414;2023-01-24T17:33:53;3.90;98.50
61979;DHT22;47938;48.176;16.414;2023-01-24T17:36:19;3.80;99.00
61979;DHT22;47938;48.176;16.414;2023-01-24T17:38:45;3.90;98.90
61979;DHT22;47938;48.176;16.414;2023-01-24T17:41:16;3.90;99.10
61979;DHT22;47938;48.176;16.414;2023-01-24T17:43:42;3.90;98.70
61979;DHT22;47938;48.176;16.414;2023-01-24T17:46:09;3.90;98.60
61979;DHT22;47938;48.176;16.414;2023-01-24T17:48:35;3.80;99.20
61979;DHT22;47938;48.176;16.414;2023-01-24T17:51:27;3.90;98.70
61979;DHT22;47938;48.176;16.414;2023-01-24T17:53:53;3.90;99.10